Alburnett, Iowa
Current Conditions -  °F | °C
As of 6:52 AM on Sunday 23 Nov 2014 (Local Time) from KCID Reporting Station
Haze Haze  
Wind Chill:   Ceiling: 200
Heat Index:   Visibility: 2.5mi
Dew Point:   Wind: 8mph
Humidity: 100%   Direction: 160°SSE
Pressure: 29.6"   Gusts: NA
Location:  42.15°N, 91.62°W
Report Text: KCID 231252Z 16007KT 2 1/2SM BR OVC002 09/09 A2960 RMK AO2 SLP023 T00940094
Loading
Personal Weather Stations






























Interactive Weather Map New forecast layout! Learn more

10-Day Weather Forecast

Advertisements
Track Severe Weather on mobile